Terminal Aerodrome Forecast
Issued by NWS

Home | Current Version | Previous Version | Text Only | Print | Product List | Glossary On
Versions: 1 2 3 4 5 6 7 8 9 10 11 12 13 14 15 16 17 18 19 20 21 22 23 24 25 26 27 28 29 30
727
FTUS43 KDMX 132338
TAFOTM
TAF
KOTM 132338Z 1400/1424 13009KT P6SM BKN060
     FM140300 12013KT 5SM -SN BKN025
     FM140600 13014G20KT P6SM BKN020
     FM141000 13014G20KT 1 1/2SM -SN OVC010
     FM141700 13012KT 4SM -SN OVC015
     FM142100 13009KT 5SM BR OVC028=

USA.gov is the U.S. government's official web portal to all federal, state and local government web resources and services.